Time;durP1;ratioP1;P1;durP2;ratioP2;P2;SDS_P1;SDS_P2;PMS_P1;PMS_P2;Temp;Humidity;BMP_temperature;BMP_pressure;BME280_temperature;BME280_humidity;BME280_pressure;Samples;Min_cycle;Max_cycle;Signal;HPM_P1;HPM_P2
2023/01/19 00:00:38;;;;;;;1.52;1.02;;;;;;;;;;5012661;28;20030;-41
2023/01/19 00:03:04;;;;;;;2.40;0.90;;;;;;;;;;5013653;28;20030;-40
2023/01/19 00:05:32;;;;;;;1.73;1.30;;;;;;;;;;5007472;28;20022;-41
2023/01/19 00:08:13;;;;;;;1.83;1.25;;;;;;;;;;5013240;28;20025;-41
2023/01/19 00:10:39;;;;;;;2.35;1.23;;;;;;;;;;5012147;28;20057;-40
2023/01/19 00:13:05;;;;;;;2.60;1.00;;;;;;;;;;5013153;28;20076;-40
2023/01/19 00:15:31;;;;;;;1.35;0.75;;;;;;;;;;5027882;28;20049;-41
2023/01/19 00:17:57;;;;;;;1.13;1.02;;;;;;;;;;5052851;28;20033;-40
2023/01/19 00:20:23;;;;;;;2.35;1.10;;;;;;;;;;5046214;28;20370;-41
2023/01/19 00:22:49;;;;;;;3.60;1.30;;;;;;;;;;5052899;28;20028;-42
2023/01/19 00:25:18;;;;;;;2.28;1.10;;;;;;;;;;5052319;28;20494;-42
2023/01/19 00:27:48;;;;;;;2.08;1.02;;;;;;;;;;5052981;28;20075;-40
2023/01/19 00:30:17;;;;;;;1.75;0.88;;;;;;;;;;5044548;28;20478;-40
2023/01/19 00:32:43;;;;;;;1.98;1.02;;;;;;;;;;5028714;28;20040;-40
2023/01/19 00:35:09;;;;;;;2.45;1.30;;;;;;;;;;5048077;28;20029;-40
2023/01/19 00:37:35;;;;;;;1.67;1.40;;;;;;;;;;5042547;28;20025;-41
2023/01/19 00:40:01;;;;;;;1.58;1.00;;;;;;;;;;5044825;28;20032;-40
2023/01/19 00:42:39;;;;;;;2.45;0.85;;;;;;;;;;5043590;28;20116;-40
2023/01/19 00:45:09;;;;;;;1.30;1.02;;;;;;;;;;5046796;28;20025;-41
2023/01/19 00:47:35;;;;;;;1.15;0.90;;;;;;;;;;5045008;28;20204;-40
2023/01/19 00:50:01;;;;;;;1.20;1.10;;;;;;;;;;5047249;28;20114;-40
2023/01/19 00:52:27;;;;;;;2.63;1.30;;;;;;;;;;5041856;28;20485;-40
2023/01/19 00:54:53;;;;;;;3.13;1.33;;;;;;;;;;5047212;28;20032;-40
2023/01/19 00:57:19;;;;;;;2.15;1.08;;;;;;;;;;5040627;28;20017;-40
2023/01/19 00:59:45;;;;;;;2.38;0.90;;;;;;;;;;5045166;28;20037;-40
2023/01/19 01:02:11;;;;;;;3.55;1.10;;;;;;;;;;5043575;28;20163;-40
2023/01/19 01:04:37;;;;;;;1.35;1.00;;;;;;;;;;5043413;28;20025;-40
2023/01/19 01:07:03;;;;;;;2.00;0.98;;;;;;;;;;5044559;28;20021;-40
2023/01/19 01:09:29;;;;;;;3.30;1.25;;;;;;;;;;5045143;28;20087;-41
2023/01/19 01:11:56;;;;;;;2.08;1.30;;;;;;;;;;5046572;28;20032;-40
2023/01/19 01:14:22;;;;;;;3.15;1.40;;;;;;;;;;5043513;28;20027;-40
2023/01/19 01:16:48;;;;;;;2.25;1.30;;;;;;;;;;5044566;28;20048;-40
2023/01/19 01:19:14;;;;;;;1.33;1.00;;;;;;;;;;5044006;28;20025;-40
2023/01/19 01:21:40;;;;;;;1.70;1.20;;;;;;;;;;5047680;28;20053;-40
2023/01/19 01:24:07;;;;;;;1.63;1.20;;;;;;;;;;5047163;28;20391;-40
2023/01/19 01:26:33;;;;;;;1.27;0.95;;;;;;;;;;5043104;28;20029;-40
2023/01/19 01:28:59;;;;;;;1.65;0.85;;;;;;;;;;5042877;28;20022;-40
2023/01/19 01:31:25;;;;;;;1.77;1.23;;;;;;;;;;5044649;28;20560;-40
2023/01/19 01:33:51;;;;;;;2.88;1.08;;;;;;;;;;5047846;28;20078;-40
2023/01/19 01:36:20;;;;;;;1.70;1.20;;;;;;;;;;5047113;28;20063;-40
2023/01/19 01:38:46;;;;;;;3.15;1.00;;;;;;;;;;5043885;28;20021;-40
2023/01/19 01:41:12;;;;;;;1.52;0.93;;;;;;;;;;5045456;28;20044;-40
2023/01/19 01:43:42;;;;;;;2.28;1.25;;;;;;;;;;5045179;28;20013;-40
2023/01/19 01:46:08;;;;;;;1.63;1.10;;;;;;;;;;5046701;28;20017;-40
2023/01/19 01:48:35;;;;;;;1.40;1.10;;;;;;;;;;5046057;28;20100;-40
2023/01/19 01:53:51;;;;;;;1.05;0.82;;;;;;;;;;5043439;28;20109;-40
2023/01/19 01:56:19;;;;;;;1.52;0.98;;;;;;;;;;5045594;28;20090;-41
2023/01/19 01:58:45;;;;;;;2.00;0.95;;;;;;;;;;5026796;28;20017;-40
2023/01/19 02:03:56;;;;;;;1.98;1.20;;;;;;;;;;5045981;28;20091;-40
2023/01/19 02:06:23;;;;;;;1.85;1.30;;;;;;;;;;5045882;28;20021;-40
2023/01/19 02:14:23;;;;;;;1.17;1.00;;;;;;;;;;5047856;28;20070;-40
2023/01/19 02:16:50;;;;;;;1.50;1.08;;;;;;;;;;5044340;28;20040;-40
2023/01/19 02:19:24;;;;;;;1.90;1.10;;;;;;;;;;5048223;28;20056;-40
2023/01/19 02:21:56;;;;;;;2.08;0.90;;;;;;;;;;5046211;28;20028;-40
2023/01/19 02:24:22;;;;;;;2.05;1.23;;;;;;;;;;5043777;28;20025;-40
2023/01/19 02:26:49;;;;;;;2.25;1.33;;;;;;;;;;5049839;28;20028;-40
2023/01/19 02:29:17;;;;;;;1.27;0.82;;;;;;;;;;5051971;28;20021;-40
2023/01/19 02:31:46;;;;;;;1.60;1.13;;;;;;;;;;5047507;28;20040;-40
2023/01/19 02:34:15;;;;;;;2.15;1.00;;;;;;;;;;5050981;28;20478;-40
2023/01/19 02:36:48;;;;;;;1.38;0.90;;;;;;;;;;5046363;28;20025;-40
2023/01/19 02:39:15;;;;;;;1.48;0.95;;;;;;;;;;5046694;28;20021;-40
2023/01/19 02:41:44;;;;;;;1.33;0.73;;;;;;;;;;5047408;28;20018;-40
2023/01/19 02:44:10;;;;;;;1.50;1.25;;;;;;;;;;5048705;28;20420;-40
2023/01/19 02:46:37;;;;;;;1.35;0.98;;;;;;;;;;5044562;28;20021;-40
2023/01/19 02:49:03;;;;;;;1.50;0.95;;;;;;;;;;5050244;28;20105;-40
2023/01/19 02:51:29;;;;;;;1.70;1.13;;;;;;;;;;5048529;28;20025;-40
2023/01/19 02:54:04;;;;;;;1.27;0.93;;;;;;;;;;5047445;28;20507;-40
2023/01/19 02:56:36;;;;;;;2.05;1.10;;;;;;;;;;5048210;28;20028;-40
2023/01/19 02:59:02;;;;;;;;;;;;;;;;;;5045087;28;20582;-40
2023/01/19 03:01:28;;;;;;;1.98;1.00;;;;;;;;;;5046942;28;19905;-40
2023/01/19 03:03:56;;;;;;;1.83;0.98;;;;;;;;;;5046697;28;20014;-40
2023/01/19 03:06:28;;;;;;;1.63;1.00;;;;;;;;;;5047289;28;20459;-40
2023/01/19 03:09:08;;;;;;;2.08;0.98;;;;;;;;;;5049778;28;20025;-40
2023/01/19 03:11:38;;;;;;;1.30;1.00;;;;;;;;;;5046063;28;20497;-40
2023/01/19 03:14:07;;;;;;;1.58;1.00;;;;;;;;;;5048297;28;20056;-40
2023/01/19 03:16:42;;;;;;;1.65;0.90;;;;;;;;;;5050707;28;20064;-40
2023/01/19 03:19:20;;;;;;;1.27;0.80;;;;;;;;;;5047412;28;20045;-40
2023/01/19 03:21:47;;;;;;;1.27;0.90;;;;;;;;;;5051386;28;20017;-40
2023/01/19 03:24:14;;;;;;;2.08;0.80;;;;;;;;;;5050394;28;20025;-43
2023/01/19 03:26:42;;;;;;;2.05;0.90;;;;;;;;;;5048736;28;20325;-40
2023/01/19 03:29:12;;;;;;;1.08;0.80;;;;;;;;;;5049369;28;20039;-40
2023/01/19 03:31:39;;;;;;;1.13;0.80;;;;;;;;;;5046284;28;20222;-40
2023/01/19 03:34:07;;;;;;;1.77;1.00;;;;;;;;;;5050824;28;20021;-40
2023/01/19 03:36:35;;;;;;;1.48;0.75;;;;;;;;;;5047646;28;20070;-40
2023/01/19 03:39:02;;;;;;;1.45;0.82;;;;;;;;;;5048127;28;20049;-40
2023/01/19 03:41:30;;;;;;;1.77;1.20;;;;;;;;;;5050836;28;20020;-40
2023/01/19 03:43:56;;;;;;;1.60;0.80;;;;;;;;;;5049525;28;20433;-40
2023/01/19 03:46:23;;;;;;;1.02;0.90;;;;;;;;;;5048305;28;20075;-40
2023/01/19 03:48:49;;;;;;;1.73;0.98;;;;;;;;;;5039470;28;20017;-40
2023/01/19 03:51:15;;;;;;;1.30;1.10;;;;;;;;;;5052919;28;20107;-40
2023/01/19 03:53:42;;;;;;;1.20;1.00;;;;;;;;;;5052267;28;20151;-40
2023/01/19 03:56:16;;;;;;;1.73;1.00;;;;;;;;;;5052835;28;20025;-40
2023/01/19 03:58:42;;;;;;;1.27;0.80;;;;;;;;;;5052422;28;20032;-40
2023/01/19 04:01:08;;;;;;;2.25;0.75;;;;;;;;;;5051039;28;20025;-40
2023/01/19 04:03:34;;;;;;;1.02;0.70;;;;;;;;;;5051673;28;20466;-40
2023/01/19 04:06:00;;;;;;;1.13;0.90;;;;;;;;;;5052730;28;20112;-40
2023/01/19 04:08:26;;;;;;;1.83;0.82;;;;;;;;;;5051927;28;20031;-40
2023/01/19 04:10:52;;;;;;;0.93;0.73;;;;;;;;;;5052842;28;20037;-40
2023/01/19 04:13:18;;;;;;;2.15;0.90;;;;;;;;;;5052153;28;20470;-40
2023/01/19 04:15:44;;;;;;;1.17;1.05;;;;;;;;;;5052564;28;20052;-40
2023/01/19 04:18:10;;;;;;;1.10;1.02;;;;;;;;;;5053430;28;20063;-40
2023/01/19 04:20:36;;;;;;;1.08;0.80;;;;;;;;;;5051818;28;20025;-40
2023/01/19 04:23:02;;;;;;;1.45;1.15;;;;;;;;;;5049010;28;20063;-40
2023/01/19 04:25:28;;;;;;;1.35;1.00;;;;;;;;;;5051336;28;20021;-40
2023/01/19 04:27:56;;;;;;;1.38;1.00;;;;;;;;;;5053366;28;20100;-40
2023/01/19 04:30:22;;;;;;;1.85;0.98;;;;;;;;;;5051632;28;20041;-40
2023/01/19 04:32:48;;;;;;;1.75;0.98;;;;;;;;;;5053029;28;20075;-40
2023/01/19 04:35:15;;;;;;;1.50;1.00;;;;;;;;;;5052401;28;20021;-40
2023/01/19 04:37:41;;;;;;;1.73;1.17;;;;;;;;;;5052035;28;20084;-40
2023/01/19 04:40:08;;;;;;;1.88;1.15;;;;;;;;;;5046183;28;20036;-40
2023/01/19 04:42:34;;;;;;;1.85;0.82;;;;;;;;;;5052034;28;20033;-40
2023/01/19 04:45:00;;;;;;;1.27;0.80;;;;;;;;;;5052044;28;20059;-40
2023/01/19 04:47:26;;;;;;;2.42;1.80;;;;;;;;;;5051571;28;20028;-40
2023/01/19 04:49:52;;;;;;;1.50;0.98;;;;;;;;;;5051047;28;20112;-40
2023/01/19 04:52:18;;;;;;;1.85;1.00;;;;;;;;;;5051769;28;20021;-40
2023/01/19 04:54:44;;;;;;;1.40;1.08;;;;;;;;;;5051725;28;20522;-40
2023/01/19 04:57:10;;;;;;;1.73;1.00;;;;;;;;;;5046410;28;20028;-40
2023/01/19 04:59:36;;;;;;;2.78;1.23;;;;;;;;;;5050428;28;20622;-40
2023/01/19 05:02:02;;;;;;;1.13;1.00;;;;;;;;;;5051621;28;20021;-40
2023/01/19 05:04:28;;;;;;;2.60;1.38;;;;;;;;;;5050840;28;20028;-40
2023/01/19 05:06:54;;;;;;;1.15;0.90;;;;;;;;;;5052202;28;20087;-40
2023/01/19 05:09:20;;;;;;;1.52;1.10;;;;;;;;;;5050878;28;20029;-40
2023/01/19 05:11:46;;;;;;;1.17;0.98;;;;;;;;;;5034374;28;20466;-40
2023/01/19 05:14:12;;;;;;;1.42;0.80;;;;;;;;;;5045447;28;20041;-40
2023/01/19 05:16:38;;;;;;;1.20;1.10;;;;;;;;;;5029082;28;20112;-40
2023/01/19 05:19:04;;;;;;;1.15;1.00;;;;;;;;;;5031508;28;20533;-40
2023/01/19 05:21:31;;;;;;;1.10;0.93;;;;;;;;;;5030867;28;20052;-40
2023/01/19 05:23:57;;;;;;;1.75;1.17;;;;;;;;;;5035017;28;20029;-40
2023/01/19 05:26:22;;;;;;;1.75;0.95;;;;;;;;;;5030482;28;20357;-40
2023/01/19 05:28:49;;;;;;;1.30;0.90;;;;;;;;;;5030574;28;20010;-43
2023/01/19 05:31:15;;;;;;;1.85;0.98;;;;;;;;;;5030308;28;20029;-40
2023/01/19 05:33:41;;;;;;;1.80;1.10;;;;;;;;;;5030066;28;20029;-40
2023/01/19 05:36:07;;;;;;;1.17;0.80;;;;;;;;;;5031304;28;20029;-40
2023/01/19 05:38:33;;;;;;;1.25;1.00;;;;;;;;;;5030345;28;20018;-40
2023/01/19 05:40:59;;;;;;;0.90;0.80;;;;;;;;;;5031746;28;20438;-40
2023/01/19 05:43:25;;;;;;;1.63;1.02;;;;;;;;;;5030113;28;20108;-40
2023/01/19 05:45:51;;;;;;;1.63;1.20;;;;;;;;;;5031853;28;20032;-40
2023/01/19 05:48:17;;;;;;;1.25;0.85;;;;;;;;;;5030944;28;20036;-40
2023/01/19 05:50:43;;;;;;;2.17;1.20;;;;;;;;;;5031079;28;20033;-40
2023/01/19 05:53:09;;;;;;;1.25;1.00;;;;;;;;;;5030943;28;20013;-40
2023/01/19 05:55:35;;;;;;;0.98;0.70;;;;;;;;;;5030168;28;20041;-40
2023/01/19 05:58:01;;;;;;;1.90;1.20;;;;;;;;;;5031066;28;20147;-40
2023/01/19 06:00:28;;;;;;;1.50;1.10;;;;;;;;;;5030171;28;20029;-40
2023/01/19 06:02:53;;;;;;;1.33;0.88;;;;;;;;;;5031033;28;20028;-40
2023/01/19 06:05:19;;;;;;;1.35;0.98;;;;;;;;;;5030070;28;20026;-40
2023/01/19 06:07:45;;;;;;;2.38;1.02;;;;;;;;;;5031746;28;20021;-40
2023/01/19 06:10:11;;;;;;;1.45;0.93;;;;;;;;;;5031455;28;20042;-40
2023/01/19 06:12:40;;;;;;;2.55;0.88;;;;;;;;;;5030336;28;20199;-40
2023/01/19 06:15:06;;;;;;;1.38;0.70;;;;;;;;;;5033547;28;20120;-40
2023/01/19 06:17:33;;;;;;;1.42;1.05;;;;;;;;;;5047375;28;20037;-42
2023/01/19 06:19:59;;;;;;;1.63;1.05;;;;;;;;;;5050510;28;20029;-41
2023/01/19 06:22:25;;;;;;;1.20;1.00;;;;;;;;;;5054253;28;20021;-41
2023/01/19 06:24:51;;;;;;;2.30;1.17;;;;;;;;;;5050868;28;20071;-40
2023/01/19 06:27:17;;;;;;;1.73;0.90;;;;;;;;;;5051182;28;20021;-40
2023/01/19 06:29:43;;;;;;;3.15;1.83;;;;;;;;;;5050782;28;20045;-40
2023/01/19 06:32:09;;;;;;;2.90;1.10;;;;;;;;;;5045769;28;20020;-40
2023/01/19 06:34:35;;;;;;;1.30;1.08;;;;;;;;;;5049325;28;20033;-41
2023/01/19 06:37:01;;;;;;;2.25;1.40;;;;;;;;;;5050772;28;20017;-40
2023/01/19 06:39:27;;;;;;;3.60;0.95;;;;;;;;;;5049740;28;20323;-41
2023/01/19 06:41:53;;;;;;;1.38;0.90;;;;;;;;;;5050820;28;20104;-41
2023/01/19 06:44:18;;;;;;;1.30;0.88;;;;;;;;;;5049331;28;20032;-41
2023/01/19 06:46:45;;;;;;;3.83;1.25;;;;;;;;;;5050818;28;20043;-41
2023/01/19 06:49:11;;;;;;;7.75;0.85;;;;;;;;;;5050244;28;20048;-40
2023/01/19 06:51:37;;;;;;;2.97;1.52;;;;;;;;;;5049894;28;20099;-40
2023/01/19 06:54:03;;;;;;;2.38;1.10;;;;;;;;;;5050126;28;20033;-40
2023/01/19 06:56:29;;;;;;;1.75;1.05;;;;;;;;;;5049770;28;20059;-40
2023/01/19 06:58:55;;;;;;;1.35;0.80;;;;;;;;;;5050136;28;20131;-40
2023/01/19 07:01:21;;;;;;;2.65;1.00;;;;;;;;;;5049632;28;20021;-40
2023/01/19 07:03:47;;;;;;;2.15;1.02;;;;;;;;;;5049614;28;20025;-40
2023/01/19 07:06:13;;;;;;;2.80;1.00;;;;;;;;;;5050448;28;20029;-41
2023/01/19 07:08:39;;;;;;;3.17;0.90;;;;;;;;;;5049296;28;20017;-40
2023/01/19 07:11:06;;;;;;;1.95;1.00;;;;;;;;;;5049103;28;20025;-39
2023/01/19 07:13:33;;;;;;;1.58;0.98;;;;;;;;;;5048814;28;20111;-39
2023/01/19 07:15:59;;;;;;;1.85;0.80;;;;;;;;;;5053416;28;20068;-39
2023/01/19 07:18:25;;;;;;;2.47;0.98;;;;;;;;;;5052873;28;20025;-39
2023/01/19 07:20:51;;;;;;;3.30;1.35;;;;;;;;;;5053998;28;20689;-39
2023/01/19 07:23:17;;;;;;;1.48;0.95;;;;;;;;;;5053088;28;20044;-39
2023/01/19 07:25:46;;;;;;;3.28;1.73;;;;;;;;;;5053048;28;20025;-39
2023/01/19 07:28:14;;;;;;;1.92;1.23;;;;;;;;;;5052772;28;20075;-39
2023/01/19 07:30:41;;;;;;;3.53;1.02;;;;;;;;;;5051895;28;20192;-39
2023/01/19 07:33:07;;;;;;;1.67;1.08;;;;;;;;;;5053548;28;20051;-39
2023/01/19 07:35:33;;;;;;;3.83;1.02;;;;;;;;;;5052311;28;20075;-39
2023/01/19 07:37:59;;;;;;;2.45;1.05;;;;;;;;;;5050883;28;20404;-39
2023/01/19 07:40:25;;;;;;;2.30;0.70;;;;;;;;;;5049170;28;20120;-39
2023/01/19 07:42:51;;;;;;;2.65;0.90;;;;;;;;;;5045735;28;20017;-38
2023/01/19 07:45:19;;;;;;;2.63;1.20;;;;;;;;;;5049993;28;20071;-39
2023/01/19 07:47:47;;;;;;;1.58;0.90;;;;;;;;;;5053220;28;20529;-39
2023/01/19 07:50:13;;;;;;;2.45;1.20;;;;;;;;;;5055820;28;20033;-39
2023/01/19 07:52:39;;;;;;;1.20;0.90;;;;;;;;;;5052384;28;20031;-39
2023/01/19 07:55:05;;;;;;;6.35;1.83;;;;;;;;;;5052707;28;20144;-39
2023/01/19 07:57:31;;;;;;;7.82;1.30;;;;;;;;;;5052656;28;20047;-39
2023/01/19 07:59:57;;;;;;;2.38;1.02;;;;;;;;;;5052153;28;20501;-39
2023/01/19 08:02:24;;;;;;;4.57;1.00;;;;;;;;;;5051888;28;20052;-39
2023/01/19 08:04:50;;;;;;;2.22;1.05;;;;;;;;;;5052506;28;20029;-39
2023/01/19 08:07:16;;;;;;;2.85;0.88;;;;;;;;;;5052809;28;20124;-39
2023/01/19 08:09:42;;;;;;;2.45;0.98;;;;;;;;;;5052343;28;21976;-39
2023/01/19 08:12:08;;;;;;;4.00;1.10;;;;;;;;;;5052909;28;20071;-39
2023/01/19 08:14:34;;;;;;;4.50;1.00;;;;;;;;;;5052429;28;20466;-38
2023/01/19 08:17:01;;;;;;;2.15;0.90;;;;;;;;;;5056952;28;20021;-39
2023/01/19 08:19:27;;;;;;;4.10;1.13;;;;;;;;;;5058359;28;20029;-39
2023/01/19 08:21:55;;;;;;;0.93;0.73;;;;;;;;;;5067253;28;20029;-39
2023/01/19 08:24:22;;;;;;;4.30;1.23;;;;;;;;;;5056491;28;20017;-39
2023/01/19 08:26:48;;;;;;;4.13;1.10;;;;;;;;;;5059642;28;20104;-39
2023/01/19 08:29:14;;;;;;;3.30;0.90;;;;;;;;;;5052130;28;20085;-39
2023/01/19 08:31:40;;;;;;;1.52;0.93;;;;;;;;;;5051761;28;20179;-39
2023/01/19 08:34:07;;;;;;;3.28;1.20;;;;;;;;;;5054753;28;20370;-39
2023/01/19 08:36:33;;;;;;;4.03;1.48;;;;;;;;;;5051210;28;20029;-39
2023/01/19 08:38:59;;;;;;;2.60;1.13;;;;;;;;;;5051679;28;20025;-39
2023/01/19 08:41:25;;;;;;;2.88;1.30;;;;;;;;;;5051782;28;20028;-39
2023/01/19 08:43:51;;;;;;;2.45;0.90;;;;;;;;;;5051834;28;20082;-39
2023/01/19 08:46:20;;;;;;;4.43;1.20;;;;;;;;;;5051785;28;20033;-39
2023/01/19 08:48:49;;;;;;;4.05;1.00;;;;;;;;;;5051781;28;20055;-39
2023/01/19 08:51:15;;;;;;;3.30;1.33;;;;;;;;;;5051830;28;20480;-39
2023/01/19 08:53:41;;;;;;;5.63;1.63;;;;;;;;;;5050968;28;20025;-39
2023/01/19 08:56:11;;;;;;;2.38;1.10;;;;;;;;;;5051735;28;20374;-39
2023/01/19 08:58:38;;;;;;;2.40;1.30;;;;;;;;;;5051077;28;20095;-39
2023/01/19 09:01:04;;;;;;;2.33;0.85;;;;;;;;;;5052245;28;20024;-39
2023/01/19 09:03:30;;;;;;;4.40;1.10;;;;;;;;;;5049892;28;20029;-39
2023/01/19 09:05:56;;;;;;;3.22;0.98;;;;;;;;;;5051963;28;20434;-39
2023/01/19 09:08:22;;;;;;;3.92;1.08;;;;;;;;;;5050107;28;20021;-39
2023/01/19 09:10:49;;;;;;;4.00;1.27;;;;;;;;;;5051735;28;20109;-39
2023/01/19 09:13:15;;;;;;;1.90;1.10;;;;;;;;;;5051803;28;20067;-39
2023/01/19 09:15:42;;;;;;;2.00;0.95;;;;;;;;;;5050688;28;20045;-39
2023/01/19 09:18:18;;;;;;;3.78;1.30;;;;;;;;;;5051730;28;20014;-39
2023/01/19 09:20:45;;;;;;;2.38;1.00;;;;;;;;;;5051169;28;20064;-39
2023/01/19 09:23:11;;;;;;;2.47;0.77;;;;;;;;;;5053691;28;20592;-39
2023/01/19 09:25:38;;;;;;;2.03;1.20;;;;;;;;;;5049153;28;20082;-39
2023/01/19 09:28:08;;;;;;;4.85;1.02;;;;;;;;;;5051688;28;20538;-39
2023/01/19 09:30:36;;;;;;;1.63;0.88;;;;;;;;;;5050436;28;20029;-39
2023/01/19 09:33:05;;;;;;;2.25;0.98;;;;;;;;;;5051225;28;20021;-39
2023/01/19 09:35:31;;;;;;;2.42;1.10;;;;;;;;;;5049827;28;20024;-39
2023/01/19 09:37:57;;;;;;;3.97;1.35;;;;;;;;;;5051181;28;20039;-39
2023/01/19 09:40:23;;;;;;;5.55;1.15;;;;;;;;;;5049516;28;20560;-39
2023/01/19 09:42:51;;;;;;;1.73;0.93;;;;;;;;;;5051818;28;20033;-39
2023/01/19 09:45:23;;;;;;;2.33;1.08;;;;;;;;;;5050514;28;20063;-39
2023/01/19 09:47:49;;;;;;;;;;;;;;;;;;5052032;28;20106;-39
2023/01/19 09:50:22;;;;;;;1.63;1.08;;;;;;;;;;5050486;28;19952;-39
2023/01/19 09:52:53;;;;;;;2.05;0.90;;;;;;;;;;5050940;28;20131;-39
2023/01/19 09:55:21;;;;;;;0.98;0.70;;;;;;;;;;5049724;28;20028;-39
2023/01/19 09:57:47;;;;;;;1.75;0.85;;;;;;;;;;5051176;28;20022;-39
2023/01/19 10:00:16;;;;;;;1.23;0.88;;;;;;;;;;5050057;28;20040;-39
2023/01/19 10:03:02;;;;;;;1.75;0.90;;;;;;;;;;5050584;28;20021;-39
2023/01/19 10:05:28;;;;;;;1.73;0.73;;;;;;;;;;5048411;28;20033;-39
2023/01/19 10:08:00;;;;;;;4.75;1.23;;;;;;;;;;5050328;28;20066;-39
2023/01/19 10:10:26;;;;;;;;;;;;;;;;;;5049667;28;20036;-39
2023/01/19 10:12:52;;;;;;;2.10;0.80;;;;;;;;;;5051401;28;19919;-39
2023/01/19 10:15:33;;;;;;;1.83;1.10;;;;;;;;;;5049671;28;20552;-39
2023/01/19 10:18:07;;;;;;;1.17;0.70;;;;;;;;;;5051453;28;20068;-39
2023/01/19 10:20:36;;;;;;;1.40;0.95;;;;;;;;;;5049312;28;20452;-39
2023/01/19 10:23:05;;;;;;;2.10;1.00;;;;;;;;;;5052842;28;20055;-39
2023/01/19 10:25:31;;;;;;;1.20;0.80;;;;;;;;;;5049402;28;20095;-39
2023/01/19 10:27:59;;;;;;;2.67;0.82;;;;;;;;;;5050531;28;20394;-39
2023/01/19 10:30:27;;;;;;;2.03;0.80;;;;;;;;;;5048736;28;20108;-39
2023/01/19 10:32:53;;;;;;;1.83;0.93;;;;;;;;;;5050635;28;20017;-39
2023/01/19 10:35:23;;;;;;;1.70;1.15;;;;;;;;;;5049599;28;20113;-39
2023/01/19 10:37:49;;;;;;;3.53;0.90;;;;;;;;;;5050687;28;20029;-39
2023/01/19 10:40:21;;;;;;;3.90;1.45;;;;;;;;;;5044949;28;20029;-39
2023/01/19 10:42:47;;;;;;;1.67;0.90;;;;;;;;;;5033109;28;20104;-39
2023/01/19 10:45:21;;;;;;;1.20;0.70;;;;;;;;;;5050517;28;20469;-39
2023/01/19 10:47:47;;;;;;;1.10;0.90;;;;;;;;;;5052385;28;20492;-39
2023/01/19 10:50:22;;;;;;;3.60;1.10;;;;;;;;;;5053283;28;20033;-39
2023/01/19 10:52:50;;;;;;;1.30;0.80;;;;;;;;;;5054238;28;20059;-39
2023/01/19 10:55:26;;;;;;;1.10;0.80;;;;;;;;;;5053603;28;20024;-39
2023/01/19 10:57:53;;;;;;;1.52;1.00;;;;;;;;;;5054040;28;20549;-39
2023/01/19 11:00:29;;;;;;;1.70;1.00;;;;;;;;;;5053076;28;20048;-39
2023/01/19 11:02:55;;;;;;;0.95;0.75;;;;;;;;;;5054012;28;20576;-39
2023/01/19 11:05:25;;;;;;;0.98;0.70;;;;;;;;;;5052997;28;20100;-39
2023/01/19 11:07:51;;;;;;;2.03;0.60;;;;;;;;;;5053825;28;20100;-39
2023/01/19 11:10:19;;;;;;;1.08;0.80;;;;;;;;;;5052949;28;20048;-39
2023/01/19 11:12:45;;;;;;;2.80;1.00;;;;;;;;;;5053992;28;20025;-39
2023/01/19 11:15:13;;;;;;;1.15;0.82;;;;;;;;;;5053234;28;20049;-39
2023/01/19 11:17:42;;;;;;;1.20;0.90;;;;;;;;;;5035570;28;20055;-39
2023/01/19 11:20:18;;;;;;;1.38;0.80;;;;;;;;;;5055125;28;20037;-39
2023/01/19 11:22:44;;;;;;;2.15;0.70;;;;;;;;;;5055992;28;20028;-39
2023/01/19 11:25:20;;;;;;;1.92;0.98;;;;;;;;;;5059321;28;20366;-39
2023/01/19 11:27:50;;;;;;;1.20;0.70;;;;;;;;;;5053739;28;20100;-39
2023/01/19 11:30:22;;;;;;;2.22;1.15;;;;;;;;;;5045163;28;20033;-38
2023/01/19 11:32:48;;;;;;;2.05;1.30;;;;;;;;;;5035496;28;20043;-39
2023/01/19 11:35:32;;;;;;;1.65;0.73;;;;;;;;;;5053109;28;20031;-39
2023/01/19 11:38:13;;;;;;;1.73;0.90;;;;;;;;;;5053139;28;20029;-39
2023/01/19 11:40:40;;;;;;;1.48;0.80;;;;;;;;;;5054806;28;20420;-39
2023/01/19 11:43:10;;;;;;;1.60;0.80;;;;;;;;;;5053895;28;20404;-39
2023/01/19 11:45:36;;;;;;;3.88;1.08;;;;;;;;;;5052588;28;20029;-39
2023/01/19 11:48:04;;;;;;;5.38;1.08;;;;;;;;;;5053419;28;20033;-39
2023/01/19 11:50:29;;;;;;;2.75;1.10;;;;;;;;;;5052024;28;20033;-39
2023/01/19 11:53:00;;;;;;;2.28;1.00;;;;;;;;;;5053442;28;20021;-39
2023/01/19 11:55:42;;;;;;;3.03;1.05;;;;;;;;;;5052024;28;20029;-39
2023/01/19 11:58:13;;;;;;;3.33;0.93;;;;;;;;;;5052703;28;20080;-39
2023/01/19 12:00:39;;;;;;;2.90;0.85;;;;;;;;;;5052764;28;20033;-39
2023/01/19 12:03:08;;;;;;;2.13;1.20;;;;;;;;;;5053350;28;20028;-39
2023/01/19 12:05:34;;;;;;;3.03;1.33;;;;;;;;;;5051875;28;20052;-39
2023/01/19 12:08:03;;;;;;;1.73;1.02;;;;;;;;;;5052619;28;20033;-39
2023/01/19 12:10:32;;;;;;;2.78;0.98;;;;;;;;;;5051842;28;20041;-39
2023/01/19 12:12:58;;;;;;;2.70;0.82;;;;;;;;;;5052828;28;20036;-39
2023/01/19 12:15:29;;;;;;;1.55;1.00;;;;;;;;;;5051039;28;20077;-38
2023/01/19 12:17:57;;;;;;;1.65;1.08;;;;;;;;;;5052789;28;20096;-39
2023/01/19 12:20:36;;;;;;;1.73;1.00;;;;;;;;;;5051045;28;20028;-39
2023/01/19 12:23:08;;;;;;;2.40;1.02;;;;;;;;;;5055279;28;20381;-39
2023/01/19 12:25:47;;;;;;;2.55;1.10;;;;;;;;;;5061903;28;20394;-38
2023/01/19 12:28:16;;;;;;;1.83;0.93;;;;;;;;;;5052777;28;20416;-38
2023/01/19 12:30:42;;;;;;;2.97;0.98;;;;;;;;;;5051347;28;20065;-38
2023/01/19 12:33:27;;;;;;;2.42;0.95;;;;;;;;;;5044507;28;20064;-38
2023/01/19 12:35:54;;;;;;;2.20;1.15;;;;;;;;;;5051314;28;20111;-39
2023/01/19 12:38:39;;;;;;;3.65;1.23;;;;;;;;;;5047367;28;20029;-38
2023/01/19 12:41:16;;;;;;;2.45;0.80;;;;;;;;;;5051711;28;20036;-39
2023/01/19 12:43:42;;;;;;;1.38;0.68;;;;;;;;;;5051924;28;20217;-38
2023/01/19 12:46:18;;;;;;;1.45;0.75;;;;;;;;;;5051771;28;20027;-39
2023/01/19 12:48:44;;;;;;;1.83;1.00;;;;;;;;;;5051735;28;20017;-39
2023/01/19 12:51:21;;;;;;;1.38;0.90;;;;;;;;;;5052337;28;20039;-39
2023/01/19 12:53:56;;;;;;;2.13;1.20;;;;;;;;;;5051453;28;20017;-42
2023/01/19 12:56:37;;;;;;;1.08;0.90;;;;;;;;;;5047649;28;20124;-38
2023/01/19 12:59:04;;;;;;;1.38;0.70;;;;;;;;;;5045670;28;20025;-39
2023/01/19 13:01:30;;;;;;;1.20;0.80;;;;;;;;;;5051653;28;20025;-38
2023/01/19 13:04:02;;;;;;;1.15;0.82;;;;;;;;;;5051676;28;20025;-38
2023/01/19 13:06:52;;;;;;;4.95;1.88;;;;;;;;;;5037792;28;20028;-38
2023/01/19 13:09:38;;;;;;;2.40;1.42;;;;;;;;;;5033782;28;20041;-38
2023/01/19 13:12:13;;;;;;;2.35;0.90;;;;;;;;;;5051953;28;20432;-38
2023/01/19 13:14:39;;;;;;;2.22;1.10;;;;;;;;;;5041319;28;20028;-38
2023/01/19 13:17:25;;;;;;;1.55;1.00;;;;;;;;;;5042805;28;20037;-39
2023/01/19 13:19:54;;;;;;;1.40;1.00;;;;;;;;;;5050704;28;20108;-38
2023/01/19 13:22:38;;;;;;;1.15;0.80;;;;;;;;;;5057356;28;20435;-38
2023/01/19 13:25:04;;;;;;;1.35;0.95;;;;;;;;;;5045460;28;20424;-39
2023/01/19 13:27:30;;;;;;;4.47;1.00;;;;;;;;;;5047247;28;20044;-38
2023/01/19 13:29:56;;;;;;;2.20;1.00;;;;;;;;;;5049493;28;20037;-39
2023/01/19 13:32:24;;;;;;;3.55;1.02;;;;;;;;;;5049282;28;20425;-41
2023/01/19 13:34:57;;;;;;;3.05;1.15;;;;;;;;;;5055121;28;20032;-39
2023/01/19 13:37:26;;;;;;;0.93;0.70;;;;;;;;;;5044834;28;20048;-38
2023/01/19 13:39:53;;;;;;;1.42;0.82;;;;;;;;;;5049709;28;20033;-39
2023/01/19 13:42:22;;;;;;;1.00;0.70;;;;;;;;;;5050672;28;20056;-38
2023/01/19 13:44:51;;;;;;;1.85;0.80;;;;;;;;;;5048917;28;20424;-39
2023/01/19 13:47:37;;;;;;;2.20;0.88;;;;;;;;;;5050616;28;20424;-38
2023/01/19 13:50:03;;;;;;;1.70;0.85;;;;;;;;;;5050803;28;20043;-38
2023/01/19 13:52:30;;;;;;;1.65;0.90;;;;;;;;;;5048047;28;20028;-38
2023/01/19 13:54:57;;;;;;;1.63;0.80;;;;;;;;;;5048193;28;20024;-38
2023/01/19 13:57:23;;;;;;;3.50;1.60;;;;;;;;;;5050111;28;20021;-38
2023/01/19 14:00:04;;;;;;;3.50;1.23;;;;;;;;;;5051994;28;20035;-38
2023/01/19 14:02:30;;;;;;;1.38;1.23;;;;;;;;;;5050653;28;20103;-38
2023/01/19 14:04:56;;;;;;;1.42;0.82;;;;;;;;;;5032623;28;20132;-40
2023/01/19 14:07:25;;;;;;;1.90;0.77;;;;;;;;;;5052394;28;20382;-40
2023/01/19 14:10:08;;;;;;;2.13;0.80;;;;;;;;;;5050143;28;20017;-40
2023/01/19 14:12:34;;;;;;;1.77;0.70;;;;;;;;;;5044565;28;20068;-40
2023/01/19 14:15:00;;;;;;;2.60;0.80;;;;;;;;;;5049868;28;20045;-39
2023/01/19 14:17:27;;;;;;;1.55;0.80;;;;;;;;;;5050180;28;20025;-40
2023/01/19 14:19:55;;;;;;;3.88;1.10;;;;;;;;;;5050663;28;20104;-40
2023/01/19 14:22:21;;;;;;;3.15;0.90;;;;;;;;;;5054306;28;20031;-40
2023/01/19 14:24:47;;;;;;;1.58;1.23;;;;;;;;;;5051782;28;20029;-40
2023/01/19 14:27:18;;;;;;;1.65;0.90;;;;;;;;;;5055775;28;20105;-39
2023/01/19 14:29:46;;;;;;;1.40;0.75;;;;;;;;;;5054149;28;20024;-40
2023/01/19 14:32:26;;;;;;;2.78;1.13;;;;;;;;;;5055185;28;20021;-40
2023/01/19 14:35:03;;;;;;;1.55;1.05;;;;;;;;;;5054088;28;20028;-40
2023/01/19 14:37:33;;;;;;;1.23;0.90;;;;;;;;;;5053992;28;20025;-39
2023/01/19 14:40:12;;;;;;;3.60;1.35;;;;;;;;;;5053923;28;20025;-40
2023/01/19 14:42:54;;;;;;;1.30;0.95;;;;;;;;;;5053832;28;20104;-40
2023/01/19 14:45:20;;;;;;;;;;;;;;;;;;5040693;28;20025;-40
2023/01/19 14:47:52;;;;;;;1.08;0.82;;;;;;;;;;5054544;28;19958;-40
2023/01/19 14:50:21;;;;;;;1.65;0.75;;;;;;;;;;5053629;28;20029;-40
2023/01/19 14:52:54;;;;;;;1.70;1.08;;;;;;;;;;5053877;28;20124;-40
2023/01/19 14:55:21;;;;;;;1.58;0.98;;;;;;;;;;5053282;28;20040;-40
2023/01/19 14:57:47;;;;;;;1.20;0.80;;;;;;;;;;5054585;28;20025;-40
2023/01/19 15:00:16;;;;;;;1.27;0.88;;;;;;;;;;5053735;28;20072;-40